Palmdale, CA

4:15 PM PDT on September 28, 2016 (GMT -0700)
| | Change Station

Elev -9999 ft 0.00 °N, 0.00 °E | Updated

Partly Cloudy
Partly Cloudy
75 °F
Feels Like 75 °F
N
10
Wind Variable Wind from WSW
Gusts mph

Today
High -- | Low -- °F
--% Chance of Precip.
Yesterday
High -- | Low -- °F
Precip. -- in
Pressure 29.91 in
Visibility 4.0 miles
Clouds Few 2900 ft
Scattered Clouds 11000 ft
Dew Point 47 °F
Humidity 37%
Rainfall --
Snow Depth Not available.
6:46 AM 6:40 PM
Waning Crescent, 4% visible
METAR KPMD 282253Z AUTO 04025G30KT 4SM -RA FEW029 SCT110 26/14 A2998 RMK AO2 PK WND 04030/2248 LTG DSNT SE RAB46 SLP127 P0000 T02610139
Pressure 29.91 in
Visibility 4.0 miles
Clouds Few 2900 ft
Scattered Clouds 11000 ft
Dew Point 47 °F
Humidity 37%
Rainfall --
Snow Depth Not available.
6:46 AM 6:40 PM
Waning Crescent, 4% visible
METAR KPMD 282253Z AUTO 04025G30KT 4SM -RA FEW029 SCT110 26/14 A2998 RMK AO2 PK WND 04030/2248 LTG DSNT SE RAB46 SLP127 P0000 T02610139

10-Day Weather Forecast

Almanac

Astronomy

Sep. 28, 2016 Rise Set
Actual Time
Civil Twilight
Nautical Twilight
Astronomical Twilight
Moon
Length of Visible Light
Length of Day
Tomorrow will be .
, % of the Moon is Illuminated

Today's Extremes

State Highs State Lows

Community

WunderPhotos

Upload Photos

1,942,348 photos uploaded!

WunderBlog® & News

Nearby

Air Quality

  Air Quality AQ Index Pollutant
Not available.

Snow Depth

Station Depth Elevation

Earthquake Activity

City Distance Mag. Time & Date
Minimum magnitude displayed is 2.5.

Coastal Water Temperatures

Place Temperature

Stations

Nearby Weather Stations

Station Location Temp. Windchill Dew Point Humidity Wind Precip. Elev Updated Type
                   

Watches & Warnings

There are currently no watches in effect.